createdAt,value
2018-07-27T00:00:50.845Z,8.20
2018-07-27T00:02:31.536Z,8.20
2018-07-27T00:04:06.676Z,8.20
2018-07-27T00:05:44.442Z,7.80
2018-07-27T00:07:20.649Z,8.20
2018-07-27T00:08:57.501Z,8.20
2018-07-27T00:10:33.792Z,9.20
2018-07-27T00:12:09.544Z,7.00
2018-07-27T00:13:45.243Z,9.20
2018-07-27T00:15:23.449Z,10.20
2018-07-27T00:17:00.190Z,5.40
2018-07-27T00:18:36.402Z,9.00
2018-07-27T00:20:13.826Z,8.80
2018-07-27T00:21:51.336Z,8.20
2018-07-27T00:23:26.765Z,7.60
2018-07-27T00:25:04.466Z,7.40
2018-07-27T00:26:39.794Z,9.00
2018-07-27T00:28:16.369Z,9.00
2018-07-27T00:29:51.607Z,8.40
2018-07-27T00:31:27.367Z,10.20
2018-07-27T00:33:11.399Z,7.20
2018-07-27T00:34:53.698Z,9.00
2018-07-27T00:36:35.290Z,9.00
2018-07-27T00:38:13.767Z,9.00
2018-07-27T00:39:49.670Z,7.40
2018-07-27T00:41:30.726Z,9.80
2018-07-27T00:43:06.507Z,9.80
2018-07-27T00:44:44.071Z,8.60
2018-07-27T00:46:19.576Z,9.20
2018-07-27T00:47:59.613Z,10.20
2018-07-27T00:49:36.040Z,8.00
2018-07-27T00:51:13.195Z,9.80
2018-07-27T00:52:51.180Z,9.00
2018-07-27T00:54:30.551Z,9.60
2018-07-27T00:56:05.910Z,10.40
2018-07-27T00:57:42.642Z,11.60
2018-07-27T00:59:18.884Z,9.40
2018-07-27T01:00:55.814Z,9.40
2018-07-27T01:02:34.695Z,10.60
2018-07-27T01:04:19.593Z,8.40
2018-07-27T01:05:59.357Z,7.80
2018-07-27T01:07:34.623Z,8.60
2018-07-27T01:09:12.193Z,10.00
2018-07-27T01:10:49.939Z,9.60
2018-07-27T01:12:25.223Z,9.00
2018-07-27T01:14:03.648Z,13.00
2018-07-27T01:15:39.573Z,11.80
2018-07-27T01:17:16.098Z,10.80
2018-07-27T01:18:51.702Z,8.40
2018-07-27T01:20:27.004Z,9.60
2018-07-27T01:22:02.194Z,9.00
2018-07-27T01:23:38.240Z,12.00
2018-07-27T01:25:13.414Z,10.60
2018-07-27T01:26:49.915Z,12.40
2018-07-27T01:28:25.105Z,11.20
2018-07-27T01:30:05.042Z,12.40
2018-07-27T01:31:40.185Z,11.60
2018-07-27T01:33:15.320Z,10.80
2018-07-27T01:34:52.637Z,11.40
2018-07-27T01:36:28.861Z,12.20
2018-07-27T01:38:03.975Z,12.60
2018-07-27T01:39:39.374Z,11.40
2018-07-27T01:41:22.140Z,12.60
2018-07-27T01:42:57.784Z,11.80
2018-07-27T01:44:39.738Z,12.80
2018-07-27T01:46:15.874Z,11.80
2018-07-27T01:47:52.155Z,12.60
2018-07-27T01:49:34.048Z,15.20
2018-07-27T01:51:10.261Z,12.80
2018-07-27T01:52:52.574Z,13.60
2018-07-27T01:54:28.578Z,15.20
2018-07-27T01:56:04.297Z,15.00
2018-07-27T01:57:41.220Z,13.00
2018-07-27T01:59:18.238Z,15.20
2018-07-27T02:00:53.405Z,15.20
2018-07-27T02:02:28.532Z,14.80
2018-07-27T02:04:03.866Z,15.60
2018-07-27T02:05:40.430Z,16.60
2018-07-27T02:07:16.114Z,14.40
2018-07-27T02:08:53.217Z,14.00
2018-07-27T02:10:28.343Z,13.80
2018-07-27T02:12:04.417Z,15.00
2018-07-27T02:13:41.382Z,15.20
2018-07-27T02:15:16.812Z,15.60
2018-07-27T02:16:52.097Z,15.80
2018-07-27T02:18:28.432Z,15.80
2018-07-27T02:20:05.589Z,14.40
2018-07-27T02:21:42.301Z,14.00
2018-07-27T02:23:19.658Z,15.00
2018-07-27T02:24:54.864Z,16.40
2018-07-27T02:26:30.474Z,18.00
2018-07-27T02:28:07.509Z,18.20
2018-07-27T02:29:44.716Z,16.20
2018-07-27T02:31:21.296Z,14.00
2018-07-27T02:32:58.581Z,15.80
2018-07-27T02:34:35.317Z,15.00
2018-07-27T02:36:10.536Z,16.00
2018-07-27T02:37:47.469Z,15.60
2018-07-27T02:39:22.775Z,15.40
2018-07-27T02:40:57.940Z,15.60
2018-07-27T02:42:33.472Z,16.60
2018-07-27T02:44:09.029Z,16.00
2018-07-27T02:45:44.697Z,15.00
2018-07-27T02:47:19.882Z,14.80
2018-07-27T02:48:55.147Z,17.40
2018-07-27T02:50:30.573Z,17.20
2018-07-27T02:52:05.733Z,16.00
2018-07-27T02:53:42.616Z,16.40
2018-07-27T02:55:17.941Z,18.80
2018-07-27T02:56:53.190Z,16.40
2018-07-27T02:58:28.918Z,15.00
2018-07-27T03:00:07.468Z,16.40
2018-07-27T03:01:44.035Z,16.80
2018-07-27T03:03:19.952Z,16.60
2018-07-27T03:04:56.741Z,17.00
2018-07-27T03:06:39.461Z,16.60
2018-07-27T03:08:15.370Z,16.20
2018-07-27T03:09:50.841Z,18.20
2018-07-27T03:11:26.993Z,16.40
2018-07-27T03:13:02.406Z,15.00
2018-07-27T03:14:37.737Z,17.60
2018-07-27T03:16:12.977Z,19.20
2018-07-27T03:17:48.191Z,18.00
2018-07-27T03:19:24.168Z,16.80
2018-07-27T03:20:59.595Z,16.00
2018-07-27T03:22:34.713Z,18.20
2018-07-27T03:24:10.125Z,18.80
2018-07-27T03:25:45.277Z,15.80
2018-07-27T03:27:20.551Z,15.00
2018-07-27T03:28:57.184Z,16.00
2018-07-27T03:30:32.996Z,17.60
2018-07-27T03:32:08.246Z,16.20
2018-07-27T03:33:44.282Z,19.80
2018-07-27T03:35:22.406Z,17.80
2018-07-27T03:37:01.115Z,12.60
2018-07-27T03:38:42.547Z,19.60
2018-07-27T03:40:18.156Z,13.40
2018-07-27T03:41:54.426Z,18.00
2018-07-27T03:43:33.787Z,14.80
2018-07-27T03:45:09.527Z,17.60
2018-07-27T03:46:44.709Z,18.00
2018-07-27T03:48:19.860Z,18.60
2018-07-27T03:49:55.627Z,15.80
2018-07-27T03:51:35.499Z,16.00
2018-07-27T03:53:11.334Z,18.60
2018-07-27T03:54:46.539Z,18.00
2018-07-27T03:56:21.581Z,17.00
2018-07-27T03:57:56.782Z,18.80
2018-07-27T03:59:33.111Z,15.60
2018-07-27T04:01:08.317Z,16.60
2018-07-27T04:02:43.944Z,17.00
2018-07-27T04:04:19.139Z,15.20
2018-07-27T04:05:54.369Z,19.00
2018-07-27T04:07:29.974Z,19.60
2018-07-27T04:09:07.459Z,17.60
2018-07-27T04:10:43.191Z,19.80
2018-07-27T04:12:18.638Z,16.20
2018-07-27T04:13:53.840Z,17.80
2018-07-27T04:15:29.058Z,17.40
2018-07-27T04:17:05.149Z,14.60
2018-07-27T04:18:40.310Z,17.20
2018-07-27T04:20:15.582Z,15.60
2018-07-27T04:21:51.693Z,15.00
2018-07-27T04:23:26.817Z,16.00
2018-07-27T04:25:02.072Z,18.00
2018-07-27T04:26:37.389Z,13.80
2018-07-27T04:28:12.722Z,18.40
2018-07-27T04:29:48.328Z,16.20
2018-07-27T04:31:23.508Z,18.00
2018-07-27T04:32:58.712Z,19.20
2018-07-27T04:34:33.945Z,15.20
2018-07-27T04:36:09.426Z,15.20
2018-07-27T04:37:45.853Z,15.00
2018-07-27T04:39:22.707Z,14.80
2018-07-27T04:40:57.842Z,15.80
2018-07-27T04:42:33.842Z,16.80
2018-07-27T04:44:10.737Z,15.80
2018-07-27T04:45:45.829Z,15.80
2018-07-27T04:47:21.227Z,16.20
2018-07-27T04:48:56.303Z,11.20
2018-07-27T04:50:31.426Z,16.00
2018-07-27T04:52:08.174Z,16.80
2018-07-27T04:53:44.149Z,15.60
2018-07-27T04:55:20.058Z,13.60
2018-07-27T04:56:56.400Z,17.20
2018-07-27T04:58:31.452Z,14.20
2018-07-27T05:00:08.683Z,19.00
2018-07-27T05:01:45.434Z,16.60
2018-07-27T05:03:21.149Z,15.20
2018-07-27T05:05:02.489Z,18.80
2018-07-27T05:06:38.160Z,16.60
2018-07-27T05:08:15.973Z,16.40
2018-07-27T05:09:52.592Z,16.60
2018-07-27T05:11:29.668Z,15.00
2018-07-27T05:13:04.903Z,14.80
2018-07-27T05:14:41.006Z,17.60
2018-07-27T05:16:16.162Z,17.40
2018-07-27T05:17:52.963Z,16.20
2018-07-27T05:19:29.473Z,15.20
2018-07-27T05:21:06.677Z,16.40
2018-07-27T05:22:43.985Z,15.00
2018-07-27T05:24:19.425Z,16.00
2018-07-27T05:25:55.092Z,17.20
2018-07-27T05:27:30.314Z,15.40
2018-07-27T05:29:05.504Z,17.00
2018-07-27T05:30:44.919Z,16.60
2018-07-27T05:32:20.172Z,15.40
2018-07-27T05:33:55.299Z,18.20
2018-07-27T05:35:31.594Z,16.20
2018-07-27T05:37:07.546Z,16.60
2018-07-27T05:38:42.838Z,18.00
2018-07-27T05:40:18.020Z,18.40
2018-07-27T05:41:56.363Z,16.00
2018-07-27T05:43:31.525Z,16.60
2018-07-27T05:45:08.940Z,17.40
2018-07-27T05:46:44.064Z,14.20
2018-07-27T05:48:19.187Z,16.40
2018-07-27T05:49:58.612Z,15.20
2018-07-27T05:51:36.851Z,15.20
2018-07-27T05:53:12.038Z,14.40
2018-07-27T05:54:47.282Z,13.80
2018-07-27T05:56:22.432Z,15.20
2018-07-27T05:58:00.019Z,16.40
2018-07-27T05:59:36.269Z,18.20
2018-07-27T06:01:11.892Z,16.60
2018-07-27T06:02:47.207Z,16.00
2018-07-27T06:04:22.436Z,17.00
2018-07-27T06:05:58.324Z,16.00
2018-07-27T06:07:39.281Z,14.00
2018-07-27T06:09:15.429Z,14.60
2018-07-27T06:10:50.613Z,16.00
2018-07-27T06:12:30.157Z,17.00
2018-07-27T06:14:08.003Z,16.20
2018-07-27T06:15:44.568Z,16.60
2018-07-27T06:17:19.695Z,15.00
2018-07-27T06:18:55.264Z,16.00
2018-07-27T06:20:31.244Z,15.60
2018-07-27T06:22:11.917Z,11.60
2018-07-27T06:23:47.431Z,15.00
2018-07-27T06:25:23.263Z,16.80
2018-07-27T06:27:00.310Z,16.00
2018-07-27T06:28:37.102Z,15.00
2018-07-27T06:30:15.221Z,16.00
2018-07-27T06:31:55.653Z,15.20
2018-07-27T06:33:31.192Z,15.80
2018-07-27T06:35:09.391Z,15.40
2018-07-27T06:36:47.121Z,12.60
2018-07-27T06:38:26.364Z,15.40
2018-07-27T06:40:06.981Z,13.00
2018-07-27T06:41:52.951Z,16.20
2018-07-27T06:43:30.178Z,17.00
2018-07-27T06:45:09.907Z,17.40
2018-07-27T06:46:46.085Z,15.00
2018-07-27T06:48:25.506Z,14.80
2018-07-27T06:52:03.085Z,14.20
2018-07-27T06:53:38.609Z,15.60
2018-07-27T06:55:16.458Z,14.20
2018-07-27T06:56:51.786Z,15.60
2018-07-27T06:58:34.298Z,17.00
2018-07-27T07:00:11.194Z,15.00
2018-07-27T07:01:48.615Z,16.00
2018-07-27T07:03:25.896Z,14.00
2018-07-27T07:05:01.293Z,14.40
2018-07-27T07:06:38.303Z,15.60
2018-07-27T07:08:14.670Z,15.00
2018-07-27T07:09:51.516Z,16.60
2018-07-27T07:11:27.017Z,17.00
2018-07-27T07:13:02.746Z,16.80
2018-07-27T07:14:39.773Z,15.00
2018-07-27T07:16:16.793Z,16.20
2018-07-27T07:17:52.355Z,11.60
2018-07-27T07:19:33.532Z,17.40
2018-07-27T07:21:10.515Z,16.20
2018-07-27T07:22:47.316Z,17.60
2018-07-27T07:24:22.661Z,14.00
2018-07-27T07:25:59.105Z,16.00
2018-07-27T07:27:34.319Z,17.00
2018-07-27T07:29:09.689Z,14.20
2018-07-27T07:30:45.170Z,18.60
2018-07-27T07:32:22.253Z,17.20
2018-07-27T07:33:57.710Z,15.40
2018-07-27T07:35:35.178Z,16.80
2018-07-27T07:37:13.258Z,16.20
2018-07-27T07:38:51.607Z,16.80
2018-07-27T07:40:27.558Z,15.00
2018-07-27T07:42:03.546Z,16.00
2018-07-27T07:43:45.805Z,16.60
2018-07-27T07:45:23.614Z,14.20
2018-07-27T07:47:02.406Z,18.00
2018-07-27T07:48:38.921Z,16.80
2018-07-27T07:50:17.234Z,16.00
2018-07-27T07:51:57.721Z,14.80
2018-07-27T07:53:33.480Z,17.80
2018-07-27T07:55:09.029Z,16.60
2018-07-27T07:56:44.307Z,18.80
2018-07-27T07:58:22.799Z,16.80
2018-07-27T08:00:05.912Z,17.00
2018-07-27T08:01:45.663Z,15.60
2018-07-27T08:03:21.257Z,12.80
2018-07-27T08:04:58.370Z,15.80
2018-07-27T08:06:33.989Z,14.80
2018-07-27T08:08:10.960Z,15.00
2018-07-27T08:09:51.785Z,13.80
2018-07-27T08:11:29.037Z,15.00
2018-07-27T08:13:29.514Z,16.80
2018-07-27T08:15:13.680Z,16.00
2018-07-27T08:16:59.410Z,14.80
2018-07-27T08:18:35.767Z,15.60
2018-07-27T08:20:19.220Z,14.20
2018-07-27T08:22:01.189Z,14.20
2018-07-27T08:23:48.447Z,17.80
2018-07-27T08:27:24.278Z,12.00
2018-07-27T08:29:20.051Z,14.20
2018-07-27T08:31:05.628Z,16.80
2018-07-27T08:32:44.622Z,12.00
2018-07-27T08:34:26.818Z,14.40
2018-07-27T08:36:08.096Z,15.60
2018-07-27T08:37:48.025Z,14.20
2018-07-27T08:39:26.452Z,13.00
2018-07-27T08:41:04.762Z,14.20
2018-07-27T08:42:42.723Z,15.40
2018-07-27T08:44:22.838Z,15.20
2018-07-27T08:46:05.543Z,16.20
2018-07-27T08:47:44.489Z,15.00
2018-07-27T08:49:21.283Z,14.20
2018-07-27T08:50:58.746Z,14.60
2018-07-27T08:52:39.265Z,15.00
2018-07-27T08:54:19.510Z,15.80
2018-07-27T08:56:00.587Z,13.80
2018-07-27T08:57:40.867Z,15.00
2018-07-27T08:59:19.597Z,12.60
2018-07-27T09:01:00.806Z,14.20
2018-07-27T09:02:44.347Z,14.00
2018-07-27T09:04:22.448Z,16.60
2018-07-27T09:05:59.070Z,14.60
2018-07-27T09:07:35.908Z,15.00
2018-07-27T09:09:17.861Z,15.80
2018-07-27T09:10:57.669Z,12.40
2018-07-27T09:12:34.823Z,16.80
2018-07-27T09:14:10.510Z,14.80
2018-07-27T09:16:07.357Z,13.40
2018-07-27T09:17:47.794Z,13.00
2018-07-27T09:19:23.473Z,14.20
2018-07-27T09:21:04.679Z,14.80
2018-07-27T09:23:06.276Z,13.40
2018-07-27T09:24:56.046Z,13.00
2018-07-27T09:26:51.782Z,12.00
2018-07-27T09:28:45.367Z,12.80
2018-07-27T09:30:41.462Z,14.20
2018-07-27T09:32:27.776Z,12.00
2018-07-27T09:36:19.561Z,10.80
2018-07-27T09:37:57.574Z,13.60
2018-07-27T09:39:36.197Z,12.60
2018-07-27T09:41:20.731Z,11.20
2018-07-27T09:43:00.641Z,12.20
2018-07-27T09:45:06.327Z,11.60
2018-07-27T09:47:03.116Z,11.20
2018-07-27T09:50:57.120Z,13.40
2018-07-27T09:52:40.761Z,11.00
2018-07-27T09:54:28.358Z,11.00
2018-07-27T09:56:23.780Z,11.00
2018-07-27T09:58:00.916Z,13.40
2018-07-27T09:59:50.580Z,12.40
2018-07-27T10:01:44.429Z,11.00
2018-07-27T10:03:27.415Z,11.20
2018-07-27T10:05:12.494Z,9.00
2018-07-27T10:06:51.241Z,8.80
2018-07-27T10:08:44.553Z,11.40
2018-07-27T10:10:44.504Z,10.60
2018-07-27T10:12:30.720Z,8.80
2018-07-27T10:14:17.045Z,10.00
2018-07-27T10:15:56.498Z,10.00
2018-07-27T10:17:36.937Z,10.00
2018-07-27T10:19:17.149Z,8.80
2018-07-27T10:20:55.393Z,8.60
2018-07-27T10:22:43.295Z,10.00
2018-07-27T10:24:32.093Z,9.80
2018-07-27T10:26:22.075Z,10.60
2018-07-27T10:28:17.161Z,9.40
2018-07-27T10:29:53.704Z,10.20
2018-07-27T10:31:36.363Z,9.20
2018-07-27T10:33:18.258Z,7.80
2018-07-27T10:35:16.796Z,8.00
2018-07-27T10:37:05.122Z,9.20
2018-07-27T10:38:54.972Z,10.20
2018-07-27T10:40:43.824Z,9.80
2018-07-27T10:42:27.850Z,11.80
2018-07-27T10:44:14.380Z,10.80
2018-07-27T10:45:53.262Z,10.60
2018-07-27T10:49:40.779Z,9.40
2018-07-27T10:53:10.750Z,9.20
2018-07-27T10:54:51.388Z,7.20
2018-07-27T10:56:45.477Z,8.00
2018-07-27T10:58:22.061Z,7.00
2018-07-27T10:59:58.264Z,8.60
2018-07-27T11:01:39.983Z,10.00
2018-07-27T11:03:15.434Z,8.40
2018-07-27T11:06:54.809Z,9.20
2018-07-27T11:08:40.315Z,9.40
2018-07-27T11:10:22.959Z,7.00
2018-07-27T11:12:29.799Z,8.20
2018-07-27T11:14:09.012Z,9.60
2018-07-27T11:15:44.849Z,9.60
2018-07-27T11:17:21.267Z,9.20
2018-07-27T11:18:59.355Z,9.60
2018-07-27T11:20:43.204Z,8.00
2018-07-27T11:22:26.796Z,8.40
2018-07-27T11:24:05.524Z,7.20
2018-07-27T11:25:44.114Z,7.60
2018-07-27T11:31:19.672Z,10.40
2018-07-27T11:32:58.744Z,11.20
2018-07-27T11:34:35.540Z,9.60
2018-07-27T11:36:15.316Z,10.60
2018-07-27T11:37:54.249Z,9.20
2018-07-27T11:39:36.972Z,9.00
2018-07-27T11:41:15.087Z,10.00
2018-07-27T11:42:53.130Z,10.80
2018-07-27T11:46:31.302Z,9.00
2018-07-27T11:48:19.617Z,7.00
2018-07-27T11:50:10.647Z,7.60
2018-07-27T11:53:56.826Z,11.00
2018-07-27T11:55:47.400Z,9.00
2018-07-27T11:57:31.274Z,8.60
2018-07-27T11:59:08.449Z,10.80
2018-07-27T12:00:54.107Z,10.00
2018-07-27T12:02:39.354Z,15.00
2018-07-27T12:04:28.196Z,23.20
2018-07-27T12:06:08.408Z,10.40
2018-07-27T12:07:54.175Z,10.20
2018-07-27T12:09:32.293Z,12.40
2018-07-27T12:11:15.016Z,10.60
2018-07-27T12:12:52.713Z,12.60
2018-07-27T12:14:31.221Z,10.40
2018-07-27T12:16:09.169Z,11.20
2018-07-27T12:17:47.628Z,12.00
2018-07-27T12:19:30.292Z,11.00
2018-07-27T12:21:15.040Z,8.40
2018-07-27T12:22:51.844Z,8.80
2018-07-27T12:24:27.941Z,11.00
2018-07-27T12:26:04.176Z,8.40
2018-07-27T12:27:41.291Z,12.40
2018-07-27T12:29:18.604Z,10.40
2018-07-27T12:30:55.189Z,8.40
2018-07-27T12:32:34.258Z,11.60
2018-07-27T12:34:10.089Z,10.20
2018-07-27T12:35:45.924Z,11.80
2018-07-27T12:37:23.746Z,11.40
2018-07-27T12:38:59.524Z,8.40
2018-07-27T12:40:35.416Z,10.40
2018-07-27T12:42:11.453Z,6.80
2018-07-27T12:44:00.018Z,9.40
2018-07-27T12:45:35.504Z,7.80
2018-07-27T12:47:18.202Z,10.40
2018-07-27T12:48:54.137Z,9.20
2018-07-27T12:50:31.130Z,11.00
2018-07-27T12:52:06.793Z,7.80
2018-07-27T12:53:46.120Z,9.00
2018-07-27T12:55:26.187Z,10.40
2018-07-27T12:57:03.533Z,10.00
2018-07-27T12:58:40.463Z,9.60
2018-07-27T13:00:24.206Z,9.00
2018-07-27T13:02:05.234Z,10.40
2018-07-27T13:03:56.143Z,10.00
2018-07-27T13:05:41.207Z,8.00
2018-07-27T13:07:24.398Z,10.20
2018-07-27T13:09:01.626Z,8.00
2018-07-27T13:10:45.764Z,10.40
2018-07-27T13:12:21.594Z,9.80
2018-07-27T13:13:59.276Z,11.20
2018-07-27T13:15:36.221Z,10.00
2018-07-27T13:17:13.371Z,11.00
2018-07-27T13:18:49.333Z,10.20
2018-07-27T13:20:25.529Z,11.40
2018-07-27T13:22:02.612Z,11.20
2018-07-27T13:23:38.020Z,10.60
2018-07-27T13:25:15.011Z,12.80
2018-07-27T13:26:50.262Z,10.00
2018-07-27T13:28:26.494Z,11.80
2018-07-27T13:30:03.487Z,9.80
2018-07-27T13:31:50.284Z,11.80
2018-07-27T13:33:26.091Z,13.40
2018-07-27T13:35:05.125Z,11.00
2018-07-27T13:36:41.919Z,11.80
2018-07-27T13:38:18.177Z,9.20
2018-07-27T13:39:56.255Z,11.40
2018-07-27T13:41:45.618Z,9.80
2018-07-27T13:43:22.310Z,12.20
2018-07-27T13:44:57.819Z,11.40
2018-07-27T13:46:33.432Z,11.80
2018-07-27T13:48:11.276Z,10.00
2018-07-27T13:49:46.986Z,12.00
2018-07-27T13:51:24.088Z,10.00
2018-07-27T13:52:59.428Z,12.20
2018-07-27T13:54:37.065Z,10.20
2018-07-27T13:56:13.204Z,9.60
2018-07-27T13:57:48.637Z,14.00
2018-07-27T13:59:25.321Z,11.20
2018-07-27T14:01:03.833Z,11.60
2018-07-27T14:02:43.524Z,13.00
2018-07-27T14:04:20.119Z,9.60
2018-07-27T14:06:00.728Z,11.00
2018-07-27T14:07:37.191Z,11.20
2018-07-27T14:09:16.692Z,11.00
2018-07-27T14:10:57.247Z,12.80
2018-07-27T14:12:34.281Z,11.00
2018-07-27T14:14:10.500Z,10.00
2018-07-27T14:15:53.685Z,11.40
2018-07-27T14:17:33.859Z,12.40
2018-07-27T14:19:11.140Z,10.20
2018-07-27T14:20:55.434Z,12.80
2018-07-27T14:22:33.925Z,11.20
2018-07-27T14:24:40.743Z,12.80
2018-07-27T14:26:26.035Z,9.20
2018-07-27T14:28:04.704Z,9.20
2018-07-27T14:30:17.525Z,10.40
2018-07-27T14:31:59.275Z,12.00
2018-07-27T14:35:27.166Z,13.00
2018-07-27T14:37:03.329Z,10.20
2018-07-27T14:38:39.815Z,13.00
2018-07-27T14:40:22.783Z,12.00
2018-07-27T14:41:59.358Z,11.80
2018-07-27T14:43:59.240Z,13.00
2018-07-27T14:46:05.353Z,9.80
2018-07-27T14:47:50.786Z,12.80
2018-07-27T14:49:32.843Z,12.60
2018-07-27T14:51:21.178Z,10.00
2018-07-27T14:53:23.630Z,12.40
2018-07-27T14:55:03.649Z,11.80
2018-07-27T14:56:58.619Z,13.80
2018-07-27T14:58:38.349Z,11.20
2018-07-27T15:00:25.295Z,12.80
2018-07-27T15:02:40.201Z,12.00
2018-07-27T15:04:38.906Z,10.40
2018-07-27T15:06:41.286Z,14.00
2018-07-27T15:08:25.953Z,13.20
2018-07-27T15:10:19.342Z,11.40
2018-07-27T15:12:10.606Z,12.80
2018-07-27T15:13:46.628Z,12.60
2018-07-27T15:15:26.122Z,12.20
2018-07-27T15:20:01.817Z,11.00
2018-07-27T15:21:54.268Z,11.00
2018-07-27T15:23:31.333Z,11.00
2018-07-27T15:25:08.319Z,11.40
2018-07-27T15:26:44.104Z,11.00
2018-07-27T15:28:22.105Z,11.00
2018-07-27T15:30:25.254Z,13.00
2018-07-27T15:32:25.169Z,10.60
2018-07-27T15:34:35.413Z,10.80
2018-07-27T15:39:08.770Z,12.40
2018-07-27T15:41:10.461Z,14.00
2018-07-27T15:43:15.364Z,10.60
2018-07-27T15:45:07.750Z,3.40
2018-07-27T15:46:47.972Z,13.00
2018-07-27T15:48:25.331Z,11.40
2018-07-27T15:50:05.697Z,10.60
2018-07-27T15:51:53.982Z,10.00
2018-07-27T15:53:55.634Z,13.00
2018-07-27T15:55:33.135Z,11.60
2018-07-27T15:57:25.336Z,12.00
2018-07-27T15:59:10.789Z,12.40
2018-07-27T16:03:28.410Z,11.60
2018-07-27T16:05:15.656Z,9.60
2018-07-27T16:07:22.049Z,8.60
2018-07-27T16:17:29.200Z,11.80
2018-07-27T16:19:08.297Z,10.80
2018-07-27T16:20:48.822Z,12.60
2018-07-27T16:22:31.713Z,10.80
2018-07-27T16:24:16.932Z,13.20
2018-07-27T16:25:58.040Z,11.20
2018-07-27T16:27:42.053Z,11.40
2018-07-27T16:29:22.944Z,10.00
2018-07-27T16:31:00.619Z,11.00
2018-07-27T16:32:43.193Z,11.80
2018-07-27T16:34:47.013Z,11.40
2018-07-27T16:38:41.737Z,10.80
2018-07-27T16:40:28.647Z,11.60
2018-07-27T16:42:58.455Z,12.60
2018-07-27T16:45:00.971Z,11.00
2018-07-27T16:46:53.090Z,10.80
2018-07-27T16:48:38.667Z,10.80
2018-07-27T16:50:19.631Z,9.60
2018-07-27T16:51:56.205Z,12.00
2018-07-27T16:53:33.768Z,11.00
2018-07-27T16:55:12.996Z,10.40
2018-07-27T16:56:48.361Z,12.40
2018-07-27T16:58:27.721Z,11.00
2018-07-27T17:00:07.299Z,12.20
2018-07-27T17:01:51.835Z,10.60
2018-07-27T17:03:43.619Z,11.00
2018-07-27T17:07:38.637Z,10.80
2018-07-27T17:09:23.173Z,13.00
2018-07-27T17:11:03.313Z,11.20
2018-07-27T17:12:40.993Z,11.00
2018-07-27T17:14:40.680Z,11.40
2018-07-27T17:18:37.293Z,11.00
2018-07-27T17:20:30.034Z,10.80
2018-07-27T17:25:03.330Z,11.40
2018-07-27T17:27:22.012Z,9.20
2018-07-27T17:29:09.482Z,12.40
2018-07-27T17:30:51.808Z,12.00
2018-07-27T17:32:34.826Z,12.00
2018-07-27T17:34:20.627Z,11.80
2018-07-27T17:36:03.335Z,12.00
2018-07-27T17:37:56.233Z,10.60
2018-07-27T17:39:45.344Z,11.20
2018-07-27T17:41:54.007Z,11.60
2018-07-27T17:43:55.751Z,11.60
2018-07-27T17:45:34.048Z,10.40
2018-07-27T17:47:42.630Z,12.00
2018-07-27T17:49:23.006Z,10.80
2018-07-27T17:51:06.149Z,11.40
2018-07-27T17:55:12.601Z,11.40
2018-07-27T17:59:22.596Z,10.00
2018-07-27T18:00:57.784Z,10.20
2018-07-27T18:02:38.651Z,10.00
2018-07-27T18:04:29.280Z,11.00
2018-07-27T18:06:57.187Z,8.60
2018-07-27T18:08:39.273Z,11.00
2018-07-27T18:10:15.727Z,11.00
2018-07-27T18:11:53.520Z,10.80
2018-07-27T18:14:16.303Z,8.60
2018-07-27T18:15:57.539Z,11.00
2018-07-27T18:17:44.937Z,12.00
2018-07-27T18:23:31.373Z,11.60
2018-07-27T18:25:14.374Z,13.60
2018-07-27T18:26:57.026Z,10.20
2018-07-27T18:28:35.717Z,12.00
2018-07-27T18:30:18.403Z,12.00
2018-07-27T18:31:55.239Z,14.40
2018-07-27T18:33:40.424Z,9.20
2018-07-27T18:35:22.258Z,14.00
2018-07-27T18:37:07.776Z,12.40
2018-07-27T18:38:49.710Z,10.80
2018-07-27T18:42:36.046Z,10.40
2018-07-27T18:44:17.440Z,12.60
2018-07-27T18:45:57.494Z,11.80
2018-07-27T18:47:38.693Z,12.60
2018-07-27T18:49:15.683Z,14.60
2018-07-27T18:50:51.354Z,12.20
2018-07-27T18:52:29.436Z,14.00
2018-07-27T18:54:07.118Z,12.00
2018-07-27T18:55:45.713Z,11.60
2018-07-27T18:57:27.705Z,12.40
2018-07-27T18:59:08.173Z,12.80
2018-07-27T19:00:46.797Z,11.40
2018-07-27T19:02:23.283Z,12.00
2018-07-27T19:04:02.276Z,11.40
2018-07-27T19:05:43.423Z,13.20
2018-07-27T19:07:18.703Z,12.80
2018-07-27T19:09:01.784Z,10.40
2018-07-27T19:10:40.704Z,11.80
2018-07-27T19:12:24.160Z,12.00
2018-07-27T19:14:08.892Z,13.60
2018-07-27T19:15:50.867Z,14.00
2018-07-27T19:17:47.206Z,13.80
2018-07-27T19:19:30.280Z,12.00
2018-07-27T19:23:22.293Z,12.80
2018-07-27T19:25:01.463Z,12.20
2018-07-27T19:26:40.283Z,14.00
2018-07-27T19:28:18.397Z,10.20
2018-07-27T19:29:56.752Z,12.00
2018-07-27T19:31:38.168Z,14.20
2018-07-27T19:33:14.193Z,15.40
2018-07-27T19:34:50.217Z,22.00
2018-07-27T19:36:26.176Z,34.40
2018-07-27T19:38:03.713Z,15.00
2018-07-27T19:39:43.386Z,13.00
2018-07-27T19:41:20.749Z,11.20
2018-07-27T19:42:56.811Z,12.20
2018-07-27T19:44:35.056Z,12.80
2018-07-27T19:46:11.534Z,12.80
2018-07-27T19:47:47.273Z,13.40
2018-07-27T19:49:23.153Z,11.20
2018-07-27T19:51:00.404Z,14.80
2018-07-27T19:52:36.782Z,13.00
2018-07-27T19:54:11.966Z,12.40
2018-07-27T19:55:50.043Z,14.60
2018-07-27T19:57:28.803Z,13.00
2018-07-27T19:59:05.328Z,14.00
2018-07-27T20:00:41.837Z,13.80
2018-07-27T20:02:18.307Z,11.00
2018-07-27T20:03:57.892Z,9.80
2018-07-27T20:05:33.334Z,15.20
2018-07-27T20:07:09.701Z,11.00
2018-07-27T20:08:46.983Z,19.00
2018-07-27T20:10:23.652Z,16.40
2018-07-27T20:12:02.832Z,14.80
2018-07-27T20:13:44.283Z,11.20
2018-07-27T20:15:19.895Z,14.00
2018-07-27T20:16:55.923Z,11.40
2018-07-27T20:18:32.312Z,14.00
2018-07-27T20:20:11.112Z,14.20
2018-07-27T20:21:51.513Z,16.00
2018-07-27T20:23:28.804Z,14.40
2018-07-27T20:25:06.302Z,15.00
2018-07-27T20:26:43.049Z,15.60
2018-07-27T20:28:27.054Z,16.20
2018-07-27T20:30:06.414Z,15.80
2018-07-27T20:31:42.672Z,14.60
2018-07-27T20:33:20.670Z,14.60
2018-07-27T20:35:03.437Z,17.00
2018-07-27T20:36:46.018Z,15.40
2018-07-27T20:38:28.346Z,16.80
2018-07-27T20:40:07.075Z,16.40
2018-07-27T20:42:01.881Z,16.60
2018-07-27T20:43:55.055Z,12.80
2018-07-27T20:45:40.262Z,14.20
2018-07-27T20:47:29.745Z,13.60
2018-07-27T20:49:11.880Z,15.80
2018-07-27T20:50:56.133Z,16.00
2018-07-27T20:52:32.544Z,14.60
2018-07-27T20:54:13.375Z,14.80
2018-07-27T20:55:48.797Z,16.00
2018-07-27T20:57:35.865Z,16.20
2018-07-27T21:01:01.178Z,14.20
2018-07-27T21:02:49.067Z,16.40
2018-07-27T21:04:40.886Z,18.80
2018-07-27T21:06:38.376Z,15.40
2018-07-27T21:08:52.170Z,16.40
2018-07-27T21:10:36.049Z,16.00
2018-07-27T21:12:15.435Z,15.20
2018-07-27T21:14:01.373Z,15.20
2018-07-27T21:15:44.760Z,14.40
2018-07-27T21:17:42.115Z,16.00
2018-07-27T21:19:24.668Z,12.00
2018-07-27T21:21:08.471Z,16.40
2018-07-27T21:22:51.834Z,17.00
2018-07-27T21:24:43.954Z,16.40
2018-07-27T21:26:21.058Z,18.00
2018-07-27T21:28:05.327Z,16.00
2018-07-27T21:29:46.941Z,14.40
2018-07-27T21:31:27.420Z,14.60
2018-07-27T21:33:06.612Z,16.40
2018-07-27T21:34:44.033Z,13.60
2018-07-27T21:36:33.686Z,16.80
2018-07-27T21:38:10.181Z,16.40
2018-07-27T21:39:53.076Z,17.20
2018-07-27T21:41:33.077Z,15.60
2018-07-27T21:43:17.283Z,16.00
2018-07-27T21:44:58.095Z,18.80
2018-07-27T21:46:38.949Z,15.60
2018-07-27T21:48:24.343Z,17.00
2018-07-27T21:50:09.637Z,17.00
2018-07-27T21:51:51.412Z,16.60
2018-07-27T21:53:37.890Z,16.80
2018-07-27T21:55:31.233Z,17.40
2018-07-27T21:59:08.116Z,14.80
2018-07-27T22:00:54.435Z,16.80
2018-07-27T22:02:43.671Z,17.60
2018-07-27T22:04:21.290Z,16.00
2018-07-27T22:06:02.909Z,18.80
2018-07-27T22:07:39.897Z,16.20
2018-07-27T22:09:17.648Z,17.00
2018-07-27T22:11:17.618Z,17.00
2018-07-27T22:12:55.625Z,17.80
2018-07-27T22:14:32.280Z,15.00
2018-07-27T22:16:16.633Z,16.40
2018-07-27T22:17:53.260Z,17.80
2018-07-27T22:19:29.284Z,17.20
2018-07-27T22:21:08.292Z,16.40
2018-07-27T22:22:53.236Z,17.20
2018-07-27T22:24:39.308Z,18.60
2018-07-27T22:26:17.573Z,14.20
2018-07-27T22:27:53.874Z,18.00
2018-07-27T22:29:30.862Z,17.60
2018-07-27T22:31:11.757Z,16.00
2018-07-27T22:32:52.734Z,18.40
2018-07-27T22:36:50.885Z,16.80
2018-07-27T22:38:33.560Z,18.20
2018-07-27T22:40:21.942Z,19.00
2018-07-27T22:42:05.440Z,17.40
2018-07-27T22:43:47.385Z,13.80
2018-07-27T22:45:24.137Z,15.00
2018-07-27T22:47:09.590Z,18.60
2018-07-27T22:48:46.085Z,18.60
2018-07-27T22:50:25.754Z,16.80
2018-07-27T22:52:09.417Z,15.40